FW5863 Weather Reports


Display with metric or nautical units.
time (UTC)temp
F
wind
direction
speed
MPH
gust
MPH
rain 1hr
in
rain 24hr
in
rain mn
in
humidity
%
barometer
mb
20210622173000 64 318 2.0 5.0 0.08 3.34 2.56 91 1009.1
20210622172458 64 313 2.0 5.0 0.08 3.34 2.56 91 1009.2
20210622171958 64 330 1.0 4.0 0.23 3.34 2.56 92 1009.0
20210622171459 64 320 1.0 3.0 0.29 3.33 2.55 92 1009.0
20210622170958 64 6 0.0 2.0 0.29 3.33 2.55 92 1009.0
20210622170458 63 18 1.0 3.0 0.30 3.33 2.55 92 1009.1
20210622170000 63 307 1.0 3.0 0.34 3.33 2.55 93 1009.3
20210622165458 63 319 2.0 4.0 0.34 3.34 2.54 93 1009.2
20210622164958 63 10 2.0 4.0 0.36 3.32 2.52 92 1008.9
20210622164459 63 13 2.0 5.0 0.37 3.32 2.52 93 1008.9
20210622163958 63 29 3.0 5.0 0.38 3.30 2.50 93 1008.9
20210622163458 63 342 2.0 4.0 0.37 3.28 2.48 92 1009.0
20210622163000 63 342 1.0 4.0 0.38 3.28 2.48 92 1008.9
20210622162458 63 292 2.0 7.0 0.29 3.18 2.38 94 1009.1
20210622161959 63 340 3.0 8.0 0.25 3.12 2.32 93 1008.8
20210622161459 62 5 2.0 8.0 0.19 3.06 2.26 94 1009.0
20210622160958 62 334 1.0 3.0 0.19 3.05 2.25 94 1009.1
20210622160458 62 329 1.0 4.0 0.18 3.03 2.23 93 1009.2
20210622160000 62 270 2.0 5.0 0.16 3.01 2.21 93 1009.4
20210622155459 62 287 2.0 5.0 0.13 2.98 2.18 93 1009.5
20210622154958 62 289 3.0 5.0 0.12 2.96 2.16 93 1009.6
20210622154500 62 294 3.0 7.0 0.10 2.94 2.14 93 1009.4
20210622153958 62 360 2.0 7.0 0.09 2.92 2.12 93 1009.2
20210622153458 62 344 2.0 5.0 0.08 2.90 2.10 93 1009.3
20210622152959 62 331 2.0 5.0 0.10 2.90 2.10 93 1009.1
20210622152458 62 323 2.0 5.0 0.10 2.88 2.08 93 1009.2
20210622151500 62 334 3.0 8.0 0.09 2.87 2.07 93 1009.1
20210622150958 62 291 2.0 8.0 0.09 2.86 2.06 92 1009.1
20210622150458 62 343 2.0 7.0 0.08 2.85 2.05 92 1008.9
20210622150000 62 332 3.0 7.0 0.13 2.85 2.05 92 1008.9
20210622145459 62 332 2.0 7.0 0.12 2.85 2.04 92 1008.9
20210622144958 62 343 2.0 5.0 0.12 2.85 2.04 92 1008.7
20210622144518 62 326 1.0 4.0 0.13 2.85 2.04 92 1008.8
20210622143959 62 329 2.0 5.0 0.14 2.84 2.03 91 1008.7
20210622143459 62 349 2.0 7.0 0.13 2.83 2.02 91 1008.7
20210622143000 63 343 2.0 7.0 0.12 2.79 1.98 90 1008.7
20210622142458 63 317 3.0 5.0 0.12 2.79 1.98 89 1008.7
20210622141958 63 25 4.0 9.0 0.13 2.79 1.98 88 1008.8
20210622141500 64 340 4.0 9.0 0.20 2.79 1.98 87 1008.8
20210622140958 64 357 3.0 9.0 0.23 2.78 1.97 86 1008.9
20210622140459 64 348 3.0 8.0 0.25 2.78 1.97 86 1009.0
20210622140000 64 320 3.0 8.0 0.21 2.73 1.92 86 1008.6
20210622135458 64 30 3.0 8.0 0.21 2.73 1.92 86 1008.4
20210622134958 64 307 3.0 11.0 0.23 2.73 1.92 86 1008.6
20210622134459 64 15 4.0 11.0 0.22 2.72 1.91 85 1008.4
20210622134005 64 318 5.0 10.0 0.21 2.70 1.89 85 1008.4
20210622133506 65 3 6.0 13.0 0.21 2.70 1.89 84 1008.3
20210622133006 65 360 7.0 13.0 0.18 2.67 1.86 83 1008.3
20210622132505 65 322 5.0 12.0 0.18 2.67 1.86 83 1008.3
20210622132005 66 336 3.0 9.0 0.18 2.66 1.85 84 1008.2
20210622131506 66 331 2.0 5.0 0.11 2.59 1.78 86 1008.2
20210622131005 66 349 2.0 5.0 0.07 2.55 1.74 86 1008.0
20210622130505 66 359 2.0 5.0 0.06 2.53 1.72 86 1007.9
20210622130006 66 331 3.0 6.0 0.10 2.52 1.71 86 1007.9
20210622125505 66 350 3.0 6.0 0.13 2.52 1.71 86 1007.9
20210622125005 66 8 3.0 7.0 0.15 2.50 1.69 85 1007.7
20210622124506 66 335 3.0 7.0 0.16 2.50 1.69 86 1007.8
20210622124005 66 342 4.0 8.0 0.18 2.49 1.68 86 1007.6
20210622123505 66 350 4.0 8.0 0.20 2.49 1.68 85 1007.5
20210622123006 67 344 3.0 8.0 0.21 2.49 1.68 85 1007.4
20210622122505 67 354 3.0 11.0 0.21 2.49 1.68 85 1007.3
20210622122005 67 336 4.0 13.0 0.22 2.48 1.67 86 1007.4
20210622121506 67 335 5.0 13.0 0.31 2.48 1.67 87 1007.3
20210622121005 67 323 5.0 13.0 0.38 2.48 1.67 86 1007.3
20210622120505 67 354 4.0 8.0 0.39 2.47 1.66 87 1007.2
20210622120007 67 5 4.0 9.0 0.35 2.42 1.61 88 1007.1
20210622115506 67 323 5.0 11.0 0.33 2.39 1.58 88 1007.1
20210622115005 67 359 5.0 11.0 0.32 2.35 1.54 88 1006.9
20210622114507 68 4 5.0 13.0 0.31 2.34 1.53 88 1006.9
20210622114005 68 13 4.0 13.0 0.28 2.31 1.50 88 1006.9
20210622113505 68 15 2.0 6.0 0.27 2.29 1.48 90 1006.8
20210622113006 68 339 2.0 7.0 0.40 2.28 1.47 91 1006.8
20210622112505 68 322 2.0 7.0 0.42 2.28 1.47 90 1006.7
20210622112005 68 323 2.0 4.0 0.40 2.26 1.45 91 1006.7
20210622111508 68 313 2.0 6.0 0.31 2.17 1.36 91 1006.6
20210622111005 69 321 3.0 6.0 0.24 2.10 1.29 91 1006.5
20210622110505 69 347 3.0 8.0 0.22 2.08 1.27 90 1006.4
20210622110006 69 352 3.0 8.0 0.22 2.07 1.26 90 1006.4
20210622105505 69 290 2.0 5.0 0.22 2.06 1.25 89 1006.1
20210622105005 69 311 2.0 5.0 0.20 2.03 1.22 89 1006.0
20210622104507 69 282 2.0 5.0 0.20 2.03 1.22 89 1006.0
20210622104005 69 273 2.0 5.0 0.20 2.03 1.22 89 1006.1
20210622103505 69 286 2.0 5.0 0.19 2.02 1.21 89 1006.1
20210622103006 69 302 2.0 4.0 0.05 1.88 1.07 89 1006.0
20210622102506 69 273 3.0 5.0 0.05 1.86 1.05 89 1005.9
20210622102005 69 274 3.0 6.0 0.05 1.86 1.05 89 1005.9
20210622101507 69 302 4.0 6.0 0.07 1.86 1.05 89 1005.8
20210622101005 69 273 3.0 7.0 0.07 1.86 1.05 90 1005.8
20210622100505 68 308 3.0 7.0 0.07 1.86 1.05 90 1005.7
20210622100006 68 280 3.0 6.0 0.09 1.86 1.04 91 1005.5
20210622095505 68 275 2.0 5.0 0.09 1.85 1.03 91 1005.4
20210622095006 68 255 0.0 4.0 0.08 1.84 1.02 92 1005.5
20210622094506 67 250 1.0 4.0 0.08 1.84 1.02 92 1005.5
20210622094005 67 250 1.0 4.0 0.08 1.84 1.02 93 1005.5
20210622093505 67 252 0.0 2.0 0.10 1.84 1.02 92 1005.5
20210622093006 67 252 0.0 2.0 0.14 1.84 1.02 92 1005.5
20210622092505 67 252 0.0 2.0 0.14 1.82 1.00 92 1005.4
20210622092005 67 249 0.0 0.0 0.16 1.82 1.00 92 1005.4
20210622091507 68 249 0.0 0.0 0.18 1.80 0.98 91 1005.3
20210622091005 68 249 0.0 1.0 0.18 1.80 0.98 91 1005.4
20210622090504 68 249 0.0 2.0 0.18 1.80 0.98 91 1005.4
20210622090007 68 249 0.0 2.0 0.24 1.77 0.95 91 1005.3
20210622085507 68 251 2.0 7.0 0.23 1.76 0.94 91 1005.1
20210622085005 68 251 4.0 7.0 0.24 1.76 0.94 92 1005.0
20210622084507 68 244 2.0 7.0 0.27 1.76 0.94 93 1005.3
20210622084005 67 230 1.0 4.0 0.29 1.76 0.94 93 1005.4
20210622083505 67 263 0.0 0.0 0.34 1.74 0.92 92 1005.3
20210622083006 67 263 0.0 2.0 0.32 1.70 0.88 93 1004.9
20210622082505 67 262 0.0 3.0 0.30 1.68 0.86 93 1004.9
20210622082005 67 261 0.0 3.0 0.29 1.66 0.84 93 1004.9
20210622081506 68 290 0.0 2.0 0.28 1.62 0.80 93 1004.9
20210622081005 68 290 0.0 2.0 0.31 1.62 0.80 92 1004.8
20210622080505 68 236 0.0 5.0 0.39 1.62 0.80 92 1004.9
20210622080008 68 236 1.0 5.0 0.33 1.53 0.71 93 1004.7
20210622075505 68 184 2.0 5.0 0.36 1.53 0.71 93 1004.7
20210622075005 68 285 3.0 7.0 0.39 1.52 0.70 93 1004.7
20210622074506 68 257 3.0 7.0 0.37 1.49 0.67 94 1004.8
20210622074005 67 262 2.0 4.0 0.35 1.47 0.65 94 1004.9
20210622073505 67 227 1.0 3.0 0.28 1.40 0.58 94 1004.8
20210622073007 67 223 1.0 3.0 0.28 1.38 0.56 94 1004.8
20210622072505 67 222 1.0 2.0 0.38 1.38 0.56 93 1004.6
20210622072005 67 229 0.0 2.0 0.37 1.37 0.55 93 1004.5
20210622071506 67 230 0.0 0.0 0.35 1.34 0.52 93 1004.6
20210622071005 67 230 0.0 0.0 0.37 1.31 0.49 93 1004.5
20210622070505 68 230 0.0 0.0 0.31 1.23 0.41 93 1004.6
20210622070008 68 230 0.0 0.0 0.29 1.20 0.38 93 1004.5
20210622065505 68 230 0.0 0.0 0.26 1.17 0.35 93 1004.5
20210622065005 68 230 0.0 0.0 0.22 1.13 0.31 93 1004.5
20210622064506 68 229 0.0 0.0 0.21 1.12 0.30 92 1004.5
20210622064005 68 229 0.0 0.0 0.23 1.12 0.30 92 1004.6
20210622063505 68 229 0.0 0.0 0.24 1.12 0.30 92 1004.7
20210622063006 68 229 0.0 0.0 0.22 1.10 0.28 92 1004.7
20210622062505 68 229 0.0 0.0 0.12 1.00 0.18 92 1004.7
20210622062005 68 229 0.0 0.0 0.12 1.00 0.18 92 1004.7
20210622061506 68 229 0.0 0.0 0.11 0.99 0.17 91 1004.7
20210622061005 69 229 0.0 0.0 0.06 0.94 0.12 91 1004.7
20210622060505 69 229 0.0 0.0 0.06 0.92 0.10 91 1004.8
20210622060006 69 229 1.0 3.0 0.05 0.91 0.09 91 1004.7
20210622055505 69 229 2.0 5.0 0.05 0.91 0.09 91 1004.7
20210622055005 69 228 3.0 7.0 0.05 0.91 0.09 91 1004.7
20210622054506 69 228 4.0 7.0 0.05 0.91 0.09 91 1004.8
20210622054005 69 216 4.0 7.0 0.03 0.89 0.07 91 1004.9
20210622053505 69 240 4.0 6.0 0.02 0.88 0.06 91 1005.0
20210622053006 69 237 5.0 7.0 0.02 0.88 0.06 91 1005.1
20210622052505 69 238 4.0 7.0 0.02 0.88 0.06 91 1005.1
20210622052005 69 232 4.0 7.0 0.02 0.88 0.06 92 1005.0
20210622051506 69 207 4.0 7.0 0.05 0.88 0.06 92 1004.9
20210622051005 69 213 4.0 6.0 0.06 0.88 0.06 92 1004.9
20210622050505 69 221 4.0 7.0 0.04 0.86 0.04 92 1004.8
20210622050006 69 213 4.0 7.0 0.04 0.86 0.04 91 1004.9
20210622045505 69 193 4.0 7.0 0.05 0.86 0.04 91 1005.0
20210622045005 69 207 3.0 6.0 0.05 0.86 0.04 91 1004.9
20210622044506 69 242 2.0 6.0 0.05 0.86 0.04 92 1004.8
20210622044005 69 241 2.0 5.0 0.05 0.86 0.04 92 1004.6
20210622043505 68 244 1.0 4.0 0.05 0.86 0.04 92 1004.5
20210622043006 68 286 0.0 4.0 0.05 0.86 0.04 92 1004.5
20210622042505 68 244 0.0 0.0 0.05 0.86 0.04 91 1004.5
20210622042005 68 244 0.0 0.0 0.05 0.86 0.04 91 1004.5
20210622041506 69 244 0.0 0.0 0.02 0.83 0.01 91 1004.5
20210622041005 69 244 1.0 4.0 0.01 0.82 0.00 91 1004.5
20210622040505 69 244 2.0 5.0 0.01 0.82 0.00 91 1004.7
20210622040006 69 229 3.0 5.0 0.01 0.85 0.82 91 1004.8
20210622035505 69 236 3.0 5.0 0.00 0.84 0.81 91 1004.8
20210622035005 69 231 3.0 5.0 0.00 0.84 0.81 90 1004.8
20210622034506 69 241 4.0 6.0 0.00 0.84 0.81 90 1004.7
20210622034005 69 229 4.0 8.0 0.00 0.84 0.81 90 1004.9
20210622033505 70 200 4.0 8.0 0.00 0.84 0.81 89 1005.0
20210622033006 70 240 5.0 9.0 0.00 0.84 0.81 89 1005.1
20210622032505 70 257 5.0 9.0 0.00 0.84 0.81 89 1004.9
20210622032005 70 243 5.0 10.0 0.00 0.84 0.81 89 1004.9
20210622031508 70 255 5.0 10.0 0.00 0.84 0.81 89 1005.0
20210622031005 70 236 5.0 9.0 0.00 0.84 0.81 89 1005.0
20210622030505 70 238 6.0 10.0 0.00 0.84 0.81 89 1004.9
20210622030007 70 239 7.0 10.0 0.00 0.84 0.81 89 1005.0
20210622025505 70 246 7.0 9.0 0.00 0.84 0.81 89 1004.9
20210622025005 70 235 6.0 9.0 0.00 0.84 0.81 89 1005.1
20210622024508 70 257 6.0 8.0 0.00 0.84 0.81 89 1005.1
20210622024005 70 231 5.0 10.0 0.00 0.84 0.81 89 1005.0
20210622023505 70 252 4.0 10.0 0.00 0.84 0.81 89 1004.9
20210622023006 70 229 5.0 8.0 0.00 0.84 0.81 89 1004.9
20210622022505 70 242 5.0 8.0 0.00 0.84 0.81 89 1005.0
20210622022005 70 228 5.0 10.0 0.00 0.84 0.81 88 1004.9
20210622021506 70 256 5.0 10.0 0.00 0.84 0.81 88 1005.0
20210622021005 70 243 5.0 8.0 0.00 0.84 0.81 88 1004.9
20210622020505 70 257 5.0 8.0 0.00 0.84 0.81 88 1005.0
20210622020007 70 253 5.0 10.0 0.00 0.84 0.81 88 1004.9
20210622015505 70 264 5.0 10.0 0.00 0.84 0.81 88 1004.9
20210622015005 70 222 6.0 8.0 0.00 0.84 0.81 88 1004.9
20210622014506 70 233 5.0 10.0 0.00 0.84 0.81 88 1005.0
20210622014005 70 250 5.0 10.0 0.00 0.84 0.81 88 1004.8
20210622013505 70 211 6.0 10.0 0.00 0.84 0.81 88 1004.9
20210622013006 70 202 6.0 10.0 0.00 0.84 0.81 88 1005.0
20210622012505 70 209 6.0 13.0 0.00 0.84 0.81 88 1005.0
20210622012005 70 217 7.0 15.0 0.00 0.84 0.81 87 1005.0
20210622011506 71 208 7.0 15.0 0.00 0.84 0.81 87 1004.8
20210622011005 71 230 6.0 12.0 0.00 0.84 0.81 87 1004.8
20210622010505 71 241 7.0 13.0 0.00 0.84 0.81 87 1004.6
20210622010006 71 221 7.0 13.0 0.00 0.84 0.81 86 1004.5
20210622005505 71 222 7.0 12.0 0.00 0.84 0.81 87 1004.3
20210622005005 72 252 7.0 13.0 0.00 0.84 0.81 86 1004.3
20210622004506 72 243 7.0 13.0 0.03 0.84 0.81 87 1004.1
20210622004005 72 248 6.0 12.0 0.15 0.84 0.81 88 1004.0
20210622003505 72 245 6.0 13.0 0.26 0.84 0.81 88 1003.8
20210622003007 72 242 5.0 13.0 0.28 0.84 0.81 89 1003.7
20210622002508 72 219 4.0 9.0 0.36 0.84 0.81 90 1003.6
20210622002005 72 223 2.0 9.0 0.41 0.84 0.81 92 1003.6
20210622001506 71 293 0.0 4.0 0.65 0.84 0.81 92 1003.8
20210622001005 71 82 0.0 3.0 0.68 0.84 0.81 92 1003.8
20210622000505 72 82 0.0 3.0 0.69 0.84 0.81 92 1003.8
20210622000007 72 83 1.0 4.0 0.71 0.84 0.81 91 1003.9
20210621235505 72 342 3.0 4.0 0.76 0.84 0.81 90 1004.1
20210621235005 72 319 5.0 11.0 0.77 0.84 0.81 90 1004.1
20210621234506 73 282 7.0 13.0 0.74 0.81 0.78 89 1004.4
20210621234005 73 269 5.0 13.0 0.62 0.69 0.66 89 1004.7
20210621233505 73 259 4.0 9.0 0.51 0.58 0.55 89 1003.6
20210621233007 73 169 6.0 12.0 0.49 0.56 0.53 85 1002.5
20210621232505 74 331 9.0 14.0 0.41 0.48 0.45 85 1002.6
20210621232005 75 247 8.0 18.0 0.36 0.43 0.40 84 1002.9
20210621231507 76 260 4.0 18.0 0.12 0.19 0.16 87 1003.0
20210621231005 76 290 3.0 8.0 0.09 0.16 0.13 86 1002.6
20210621230505 77 312 6.0 12.0 0.08 0.15 0.12 84 1002.6
20210621230007 79 308 7.0 12.0 0.06 0.13 0.10 80 1002.6
20210621225505 81 235 5.0 11.0 0.01 0.08 0.05 76 1002.8
20210621225005 82 194 5.0 12.0 0.00 0.07 0.04 75 1002.5
20210621224506 83 191 5.0 12.0 0.00 0.07 0.04 73 1002.1
20210621224005 83 143 5.0 11.0 0.00 0.07 0.04 73 1002.0
20210621223505 83 165 5.0 11.0 0.00 0.07 0.04 73 1002.2
20210621223007 83 202 5.0 11.0 0.00 0.07 0.04 73 1002.1
20210621222505 83 180 5.0 14.0 0.00 0.07 0.04 73 1002.1
20210621222005 83 213 7.0 14.0 0.00 0.07 0.04 72 1002.2
20210621221506 84 178 7.0 13.0 0.00 0.07 0.04 71 1002.3
20210621221005 84 197 6.0 15.0 0.00 0.07 0.04 71 1002.5
20210621220505 84 182 7.0 16.0 0.00 0.07 0.04 71 1002.6
20210621220007 85 186 6.0 16.0 0.00 0.07 0.04 69 1002.7
20210621215505 85 183 3.0 8.0 0.00 0.07 0.04 71 1002.7
20210621215005 85 207 3.0 8.0 0.00 0.07 0.04 73 1002.5
20210621214506 84 180 4.0 10.0 0.00 0.07 0.04 72 1002.5
20210621214005 84 167 5.0 13.0 0.00 0.07 0.04 71 1002.2
20210621213505 84 188 5.0 13.0 0.00 0.07 0.04 72 1002.1
20210621213006 84 169 7.0 13.0 0.00 0.07 0.04 70 1001.9
20210621212505 84 176 8.0 16.0 0.00 0.07 0.04 69 1002.0
20210621212005 85 137 7.0 16.0 0.00 0.07 0.04 68 1002.0
20210621211508 86 152 6.0 16.0 0.00 0.07 0.04 69 1002.1
20210621211005 86 180 6.0 11.0 0.00 0.07 0.04 67 1002.3
20210621210505 86 165 6.0 12.0 0.00 0.07 0.04 70 1002.7
20210621210007 86 186 7.0 15.0 0.00 0.07 0.04 68 1002.8
20210621205505 86 173 6.0 15.0 0.00 0.07 0.04 66 1003.0
20210621205005 86 162 7.0 15.0 0.00 0.07 0.04 67 1003.0
20210621204506 86 192 6.0 15.0 0.00 0.07 0.04 67 1003.0
20210621204005 86 210 6.0 15.0 0.00 0.07 0.04 68 1003.3
20210621203505 86 171 7.0 15.0 0.00 0.07 0.04 67 1003.4
20210621203006 86 186 7.0 14.0 0.00 0.07 0.04 68 1003.6
20210621202505 86 171 6.0 14.0 0.00 0.07 0.04 71 1003.5
20210621202005 86 182 6.0 16.0 0.00 0.07 0.04 72 1003.5
20210621201506 85 179 7.0 16.0 0.00 0.07 0.04 72 1003.6
20210621201005 85 188 6.0 12.0 0.00 0.07 0.04 71 1003.7
20210621200505 85 151 6.0 12.0 0.00 0.07 0.04 72 1003.7
20210621200007 85 184 6.0 13.0 0.00 0.07 0.04 72 1003.7
20210621195505 85 169 6.0 13.0 0.00 0.07 0.04 74 1003.7
20210621195005 85 182 6.0 12.0 0.00 0.07 0.04 72 1003.7
20210621194517 86 159 8.0 14.0 0.00 0.07 0.04 72 1003.6
20210621194005 85 143 7.0 14.0 0.00 0.07 0.04 73 1003.6
20210621193505 86 174 5.0 11.0 0.00 0.07 0.04 70 1003.6
20210621193006 86 164 6.0 11.0 0.00 0.07 0.04 69 1003.6
20210621192505 86 162 6.0 13.0 0.00 0.07 0.04 68 1003.7
20210621192005 86 189 6.0 13.0 0.00 0.07 0.04 69 1003.8
20210621191506 87 221 6.0 13.0 0.00 0.07 0.04 69 1003.9
20210621191005 86 181 6.0 13.0 0.00 0.07 0.04 67 1003.9
20210621190505 86 170 5.0 10.0 0.00 0.07 0.04 70 1003.9
20210621190006 85 169 5.0 10.0 0.00 0.07 0.04 70 1004.1
20210621185505 86 197 5.0 10.0 0.00 0.07 0.04 68 1004.1
20210621185005 86 234 5.0 12.0 0.00 0.07 0.04 68 1004.2
20210621184506 86 233 5.0 12.0 0.00 0.07 0.04 70 1004.2
20210621184005 85 223 5.0 10.0 0.00 0.07 0.04 71 1004.2
20210621183505 85 214 5.0 10.0 0.00 0.07 0.04 70 1004.5
20210621183007 85 198 5.0 11.0 0.00 0.07 0.04 70 1004.6
20210621182505 85 182 5.0 11.0 0.00 0.07 0.04 70 1004.8
20210621182005 86 174 5.0 9.0 0.00 0.07 0.04 69 1004.9
20210621181507 86 201 6.0 11.0 0.00 0.07 0.04 69 1004.9
20210621181005 86 173 5.0 11.0 0.00 0.07 0.04 73 1005.0
20210621180505 85 238 5.0 11.0 0.00 0.07 0.04 69 1005.0
20210621180007 85 182 5.0 11.0 0.00 0.07 0.04 73 1005.1
20210621175505 85 204 5.0 11.0 0.00 0.07 0.04 72 1005.2
20210621175005 84 180 6.0 11.0 0.00 0.07 0.04 72 1005.3
20210621174506 85 198 5.0 12.0 0.00 0.07 0.04 72 1005.4
20210621174005 85 176 5.0 12.0 0.00 0.07 0.04 75 1005.5
20210621173505 84 180 6.0 14.0 0.00 0.07 0.04 74 1005.4